Time;durP1;ratioP1;P1;durP2;ratioP2;P2;SDS_P1;SDS_P2;PMS_P1;PMS_P2;Temp;Humidity;BMP_temperature;BMP_pressure;BME280_temperature;BME280_humidity;BME280_pressure;Samples;Min_cycle;Max_cycle;Signal;HPM_P1;HPM_P2
2021/01/24 00:00:55;;;;;;;15.70;11.38;;;;;;;4.45;81.30;99709.82;1757732;79;21543;-39
2021/01/24 00:03:23;;;;;;;14.55;10.78;;;;;;;4.46;81.32;99703.63;1761674;80;21174;-41
2021/01/24 00:06:44;;;;;;;15.60;11.10;;;;;;;4.49;81.30;99703.95;1759666;80;21142;-43
2021/01/24 00:09:32;;;;;;;12.90;9.88;;;;;;;4.48;81.26;99703.55;1685675;83;21572;-36
2021/01/24 00:11:59;;;;;;;13.43;9.65;;;;;;;4.50;81.20;99699.91;1688561;83;21210;-39
2021/01/24 00:14:27;;;;;;;14.33;10.95;;;;;;;4.52;81.20;99697.20;1682984;83;21373;-40
2021/01/24 00:16:55;;;;;;;14.95;10.45;;;;;;;4.54;81.17;99692.72;1683410;83;21179;-42
2021/01/24 00:19:22;;;;;;;13.70;10.10;;;;;;;4.52;81.16;99690.14;1687990;83;21165;-44
2021/01/24 00:21:50;;;;;;;12.35;9.60;;;;;;;4.54;81.27;99686.97;1689964;83;21182;-43
2021/01/24 00:24:18;;;;;;;17.07;9.65;;;;;;;4.57;81.25;99678.52;1689591;83;21145;-42
2021/01/24 00:26:45;;;;;;;14.83;10.85;;;;;;;4.57;81.22;99668.80;1688623;83;21574;-44
2021/01/24 00:29:13;;;;;;;13.70;9.05;;;;;;;4.58;81.25;99664.38;1671483;83;21183;-42
2021/01/24 00:31:40;;;;;;;13.20;9.03;;;;;;;4.60;81.24;99662.52;1652621;85;21170;-43
2021/01/24 00:34:08;;;;;;;10.82;8.10;;;;;;;4.61;81.25;99658.50;1650653;85;21195;-44
2021/01/24 00:36:36;;;;;;;11.45;8.50;;;;;;;4.64;81.31;99653.06;1649351;85;21366;-44
2021/01/24 00:39:04;;;;;;;12.07;9.58;;;;;;;4.64;81.33;99647.78;1649926;85;21225;-47
2021/01/24 00:41:32;;;;;;;12.20;7.75;;;;;;;4.66;81.36;99649.02;1658052;85;21174;-47
2021/01/24 00:44:00;;;;;;;11.40;8.63;;;;;;;4.68;81.34;99641.41;1652303;85;21178;-46
2021/01/24 00:46:28;;;;;;;11.28;8.45;;;;;;;4.72;81.38;99634.22;1652359;85;21167;-45
2021/01/24 00:48:56;;;;;;;11.12;8.05;;;;;;;4.72;81.38;99638.17;1649723;85;21178;-44
2021/01/24 00:51:24;;;;;;;10.00;7.12;;;;;;;4.75;81.37;99631.42;1652238;85;22070;-44
2021/01/24 00:53:52;;;;;;;12.88;9.05;;;;;;;4.76;81.34;99626.52;1632161;85;21169;-44
2021/01/24 00:56:20;;;;;;;10.80;7.95;;;;;;;4.77;81.28;99629.09;1652395;85;21195;-42
2021/01/24 00:58:47;;;;;;;15.30;10.40;;;;;;;4.78;81.24;99622.88;1651160;85;21172;-42
2021/01/24 01:01:14;;;;;;;15.13;9.13;;;;;;;4.80;81.23;99622.80;1651186;85;22168;-43
2021/01/24 01:03:42;;;;;;;11.73;8.28;;;;;;;4.82;81.13;99622.75;1649881;85;21194;-43
2021/01/24 01:06:10;;;;;;;11.48;9.50;;;;;;;4.82;81.14;99608.22;1650947;85;22023;-42
2021/01/24 01:08:37;;;;;;;13.15;9.50;;;;;;;4.83;81.19;99600.20;1649918;85;22025;-42
2021/01/24 01:11:05;;;;;;;13.30;7.87;;;;;;;4.84;81.18;99603.69;1646938;85;21174;-43
2021/01/24 01:13:32;;;;;;;11.10;8.30;;;;;;;4.85;81.12;99598.81;1653329;85;21183;-44
2021/01/24 01:16:01;;;;;;;11.38;8.25;;;;;;;4.88;81.04;99610.08;1653271;85;21175;-42
2021/01/24 01:18:31;;;;;;;11.25;8.35;;;;;;;4.87;81.02;99613.66;1650837;85;21921;-41
2021/01/24 01:20:59;;;;;;;12.18;8.93;;;;;;;4.88;80.92;99617.16;1622429;86;21182;-43
2021/01/24 01:23:27;;;;;;;11.12;7.42;;;;;;;4.89;80.89;99613.56;1652241;85;21166;-41
2021/01/24 01:25:55;;;;;;;9.58;7.50;;;;;;;4.91;80.85;99621.84;1649158;85;21166;-43
2021/01/24 01:28:23;;;;;;;12.15;8.80;;;;;;;4.92;80.77;99615.61;1663567;83;21212;-41
2021/01/24 01:30:50;;;;;;;12.85;9.25;;;;;;;4.93;80.75;99619.95;1697222;80;21595;-41
2021/01/24 01:33:19;;;;;;;14.55;8.48;;;;;;;4.94;80.68;99620.84;1769966;79;21185;-42
2021/01/24 01:35:47;;;;;;;11.12;8.38;;;;;;;4.95;80.56;99620.73;1769902;79;21150;-42
2021/01/24 01:38:14;;;;;;;12.20;8.18;;;;;;;4.97;80.59;99622.84;1770777;79;21153;-43
2021/01/24 01:40:42;;;;;;;10.43;8.15;;;;;;;4.99;80.53;99620.99;1774752;80;21153;-46
2021/01/24 01:43:09;;;;;;;10.90;7.90;;;;;;;5.01;80.50;99624.02;1773906;79;21593;-43
2021/01/24 01:45:37;;;;;;;10.05;6.87;;;;;;;5.02;80.46;99619.14;1766442;79;21118;-42
2021/01/24 01:48:05;;;;;;;10.28;8.10;;;;;;;5.03;80.46;99616.40;1777210;79;21133;-43
2021/01/24 01:50:33;;;;;;;10.53;7.17;;;;;;;5.05;80.50;99616.34;1770578;79;21547;-44
2021/01/24 01:53:01;;;;;;;9.33;7.72;;;;;;;5.06;80.46;99620.20;1770794;79;21141;-43
2021/01/24 01:55:28;;;;;;;9.30;7.12;;;;;;;5.07;80.69;99611.84;1769942;79;21248;-43
2021/01/24 01:57:56;;;;;;;9.40;6.08;;;;;;;5.09;80.67;99613.47;1772251;79;21266;-43
2021/01/24 02:00:24;;;;;;;9.13;6.42;;;;;;;5.09;80.71;99604.66;1780384;79;21577;-39
2021/01/24 02:03:32;;;;;;;10.25;6.72;;;;;;;5.10;80.73;99601.11;1779669;79;21157;-40
2021/01/24 02:06:18;;;;;;;9.13;6.03;;;;;;;5.11;80.86;99591.76;1691285;83;21176;-41
2021/01/24 02:09:04;;;;;;;8.00;5.90;;;;;;;5.14;80.90;99592.07;1689454;83;21513;-41
2021/01/24 02:12:06;;;;;;;7.45;5.85;;;;;;;5.21;81.19;99577.14;1798439;78;23082;-38
2021/01/24 02:14:38;;;;;;;8.40;5.92;;;;;;;5.20;81.38;99587.81;1783888;80;21161;-44
2021/01/24 02:17:08;;;;;;;7.37;5.65;;;;;;;5.26;81.37;99581.36;1779727;80;21131;-42
2021/01/24 02:20:02;;;;;;;9.00;6.87;;;;;;;5.29;81.37;99583.40;1783634;80;22066;-41
2021/01/24 02:22:32;;;;;;;9.73;6.42;;;;;;;5.30;81.45;99575.84;1788478;80;21175;-41
2021/01/24 02:25:14;;;;;;;7.65;6.53;;;;;;;5.32;81.45;99585.88;1784693;80;21141;-42
2021/01/24 02:27:52;;;;;;;11.22;7.50;;;;;;;5.31;81.47;99573.58;1783967;80;21117;-41
2021/01/24 02:30:26;;;;;;;8.78;6.33;;;;;;;5.34;81.44;99577.41;1779603;80;21160;-40
2021/01/24 02:33:09;;;;;;;9.60;7.22;;;;;;;5.34;81.45;99576.53;1740586;81;21153;-41
2021/01/24 02:35:48;;;;;;;7.60;5.92;;;;;;;5.35;81.49;99576.94;1721065;82;21207;-41
2021/01/24 02:38:16;;;;;;;8.83;6.70;;;;;;;5.36;81.53;99571.55;1722123;81;21125;-44
2021/01/24 02:40:44;;;;;;;9.88;6.72;;;;;;;5.36;81.56;99564.94;1714563;81;21149;-43
2021/01/24 02:43:11;;;;;;;9.48;7.05;;;;;;;5.37;81.62;99565.34;1705444;83;21158;-42
2021/01/24 02:45:42;;;;;;;8.45;7.10;;;;;;;5.39;81.67;99566.13;1716662;83;21138;-42
2021/01/24 02:48:10;;;;;;;;;;;;;;;5.41;81.73;99564.70;1725752;81;21558;-43
2021/01/24 02:50:39;;;;;;;8.85;6.62;;;;;;;5.43;81.72;99562.84;1722934;81;20168;-40
2021/01/24 02:53:06;;;;;;;12.10;7.97;;;;;;;5.43;81.73;99559.72;1719820;81;21153;-45
2021/01/24 02:55:34;;;;;;;12.55;7.37;;;;;;;5.46;81.76;99553.89;1718379;81;21139;-43
2021/01/24 02:58:02;;;;;;;8.45;7.00;;;;;;;5.47;81.73;99551.19;1749261;80;21476;-43
2021/01/24 03:00:30;;;;;;;8.85;7.40;;;;;;;5.49;81.66;99553.26;1728353;82;21133;-42
2021/01/24 03:02:57;;;;;;;8.68;6.50;;;;;;;5.50;81.77;99548.38;1724941;82;21141;-43
2021/01/24 03:05:25;;;;;;;9.98;7.45;;;;;;;5.51;81.78;99550.07;1727332;82;21170;-40
2021/01/24 03:07:53;;;;;;;7.85;6.55;;;;;;;5.54;81.77;99543.30;1729625;82;21162;-41
2021/01/24 03:10:21;;;;;;;8.75;7.05;;;;;;;5.57;81.64;99542.31;1692865;83;21157;-40
2021/01/24 03:12:54;;;;;;;13.70;7.97;;;;;;;5.58;81.74;99533.42;1708233;83;21166;-42
2021/01/24 03:15:22;;;;;;;9.40;7.47;;;;;;;5.58;81.70;99530.30;1702944;83;21153;-41
2021/01/24 03:17:50;;;;;;;10.90;8.30;;;;;;;5.60;81.67;99524.95;1738999;81;21146;-40
2021/01/24 03:20:20;;;;;;;10.63;8.30;;;;;;;5.61;81.66;99525.32;1737156;81;21174;-42
2021/01/24 03:22:48;;;;;;;10.82;8.38;;;;;;;5.61;81.65;99520.87;1680028;83;21525;-43
2021/01/24 03:25:15;;;;;;;11.90;8.60;;;;;;;5.62;81.63;99508.53;1737091;81;21145;-42
2021/01/24 03:27:45;;;;;;;9.48;6.85;;;;;;;5.62;81.75;99512.50;1771535;79;21549;-43
2021/01/24 03:30:14;;;;;;;12.05;7.72;;;;;;;5.62;81.72;99508.05;1750345;80;21590;-40
2021/01/24 03:32:41;;;;;;;9.93;7.40;;;;;;;5.64;81.75;99510.60;1769840;80;21142;-42
2021/01/24 03:35:10;;;;;;;11.68;7.58;;;;;;;5.64;81.79;99519.42;1769746;80;21150;-41
2021/01/24 03:37:38;;;;;;;9.60;7.55;;;;;;;5.64;81.84;99512.80;1774650;79;21162;-40
2021/01/24 03:40:07;;;;;;;10.25;8.10;;;;;;;5.65;81.86;99505.72;1771245;80;21144;-39
2021/01/24 03:42:35;;;;;;;10.85;7.97;;;;;;;5.66;81.86;99505.24;1769232;80;21186;-40
2021/01/24 03:45:05;;;;;;;10.98;6.70;;;;;;;5.66;81.89;99509.21;1771483;80;21178;-41
2021/01/24 03:47:33;;;;;;;12.75;7.42;;;;;;;5.66;82.11;99510.05;1774057;80;21723;-40
2021/01/24 03:50:01;;;;;;;11.10;8.28;;;;;;;5.67;82.03;99501.20;1764540;80;21150;-37
2021/01/24 03:52:29;;;;;;;14.20;9.05;;;;;;;5.68;82.14;99501.58;1767046;79;21109;-37
2021/01/24 03:54:56;;;;;;;10.53;8.03;;;;;;;5.70;82.15;99508.97;1773696;80;21106;-43
2021/01/24 03:57:25;;;;;;;10.93;7.55;;;;;;;5.72;82.32;99513.72;1775549;80;21147;-43
2021/01/24 03:59:54;;;;;;;16.30;8.55;;;;;;;5.75;82.36;99507.41;1766860;79;21574;-41
2021/01/24 04:02:22;;;;;;;11.35;7.70;;;;;;;5.76;82.39;99506.45;1768318;79;21556;-39
2021/01/24 04:04:49;;;;;;;14.75;8.60;;;;;;;5.76;82.57;99502.48;1773543;79;21454;-39
2021/01/24 04:07:17;;;;;;;11.73;8.38;;;;;;;5.76;82.47;99495.40;1775446;79;21486;-39
2021/01/24 04:09:46;;;;;;;13.68;8.88;;;;;;;5.78;82.52;99503.27;1770205;80;21173;-37
2021/01/24 04:12:14;;;;;;;15.45;9.15;;;;;;;5.79;82.78;99495.22;1773047;80;21145;-42
2021/01/24 04:14:41;;;;;;;12.68;7.85;;;;;;;5.79;82.68;99497.87;1773953;79;21134;-43
2021/01/24 04:17:09;;;;;;;10.28;7.33;;;;;;;5.81;82.67;99497.33;1767982;80;21138;-41
2021/01/24 04:19:37;;;;;;;11.35;7.83;;;;;;;5.82;82.80;99492.88;1765937;80;21130;-45
2021/01/24 04:22:04;;;;;;;15.15;9.98;;;;;;;5.85;82.83;99490.94;1771948;79;21142;-46
2021/01/24 04:24:32;;;;;;;13.78;8.80;;;;;;;5.88;82.87;99493.04;1774904;79;21146;-41
2021/01/24 04:26:59;;;;;;;15.43;8.68;;;;;;;5.91;82.86;99495.51;1765487;80;21174;-42
2021/01/24 04:29:27;;;;;;;11.95;9.10;;;;;;;5.94;82.98;99491.40;1770863;80;21138;-42
2021/01/24 04:31:54;;;;;;;13.32;8.73;;;;;;;5.96;83.02;99489.05;1764494;79;21307;-47
2021/01/24 04:34:22;;;;;;;9.93;7.42;;;;;;;5.99;83.04;99486.23;1766923;79;21149;-43
2021/01/24 04:36:49;;;;;;;10.80;7.60;;;;;;;6.00;83.06;99485.31;1769640;80;21712;-43
2021/01/24 04:39:17;;;;;;;10.13;7.55;;;;;;;6.02;83.11;99474.17;1729316;82;21670;-44
2021/01/24 04:41:45;;;;;;;11.25;7.15;;;;;;;6.03;83.18;99466.60;1769306;80;21824;-40
2021/01/24 04:44:12;;;;;;;9.80;7.67;;;;;;;6.04;83.13;99463.01;1776911;79;21145;-44
2021/01/24 04:46:41;;;;;;;11.57;7.42;;;;;;;6.08;83.14;99456.24;1768899;80;21141;-52
2021/01/24 04:49:09;;;;;;;12.60;7.75;;;;;;;6.09;83.15;99460.11;1771372;79;21122;-43
2021/01/24 04:51:38;;;;;;;12.58;7.40;;;;;;;6.12;83.13;99457.76;1769820;80;21187;-40
2021/01/24 04:54:06;;;;;;;11.05;7.92;;;;;;;6.14;83.20;99469.12;1746907;80;21499;-41
2021/01/24 04:56:36;;;;;;;10.05;7.62;;;;;;;6.15;83.17;99467.72;1742080;80;21611;-43
2021/01/24 04:59:04;;;;;;;10.30;8.15;;;;;;;6.16;83.13;99462.80;1740623;80;21126;-41
2021/01/24 05:01:32;;;;;;;10.18;6.75;;;;;;;6.17;83.09;99459.67;1769717;79;21137;-40
2021/01/24 05:04:00;;;;;;;11.40;7.58;;;;;;;6.18;83.11;99467.55;1774546;80;21585;-40
2021/01/24 05:06:27;;;;;;;9.23;6.85;;;;;;;6.20;83.11;99467.00;1774870;80;21130;-44
2021/01/24 05:09:00;;;;;;;9.63;7.35;;;;;;;6.22;83.08;99462.47;1770862;80;21129;-40
2021/01/24 05:11:29;;;;;;;11.55;6.65;;;;;;;6.24;83.09;99466.34;1767780;80;21980;-42
2021/01/24 05:14:15;;;;;;;9.18;7.10;;;;;;;6.25;83.02;99466.27;1775923;80;21133;-43
2021/01/24 05:16:43;;;;;;;8.50;7.10;;;;;;;6.25;82.93;99466.74;1772078;79;21582;-43
2021/01/24 05:19:11;;;;;;;7.80;6.83;;;;;;;6.25;82.94;99463.62;1778222;79;21150;-42
2021/01/24 05:21:38;;;;;;;9.80;6.22;;;;;;;6.28;82.94;99466.56;1779408;79;21568;-41
2021/01/24 05:24:11;;;;;;;8.33;6.62;;;;;;;6.29;82.95;99458.51;1780610;79;21993;-41
2021/01/24 05:26:44;;;;;;;10.53;7.65;;;;;;;6.29;82.91;99455.86;1749927;79;21492;-39
2021/01/24 05:29:22;;;;;;;9.45;7.45;;;;;;;6.28;82.90;99464.76;1775977;79;21146;-43
2021/01/24 05:31:51;;;;;;;10.45;7.35;;;;;;;6.29;82.92;99457.66;1778058;79;21141;-41
2021/01/24 05:34:25;;;;;;;12.80;7.87;;;;;;;6.31;82.96;99457.59;1776579;79;21116;-40
2021/01/24 05:36:53;;;;;;;11.83;8.78;;;;;;;6.33;83.03;99453.06;1780122;79;21141;-46
2021/01/24 05:39:21;;;;;;;10.75;8.33;;;;;;;6.34;83.09;99446.81;1777727;79;21133;-41
2021/01/24 05:41:54;;;;;;;11.48;7.80;;;;;;;6.37;83.07;99447.48;1777688;79;21144;-43
2021/01/24 05:44:22;;;;;;;11.55;8.13;;;;;;;6.37;83.01;99442.18;1764138;79;21153;-42
2021/01/24 05:46:52;;;;;;;11.78;8.68;;;;;;;6.38;82.93;99441.73;1777699;79;21114;-43
2021/01/24 05:49:26;;;;;;;13.03;8.58;;;;;;;6.37;82.90;99436.88;1723918;80;21137;-43
2021/01/24 05:52:06;;;;;;;13.90;8.88;;;;;;;6.37;82.92;99431.59;1770177;79;21653;-41
2021/01/24 05:54:46;;;;;;;13.48;11.18;;;;;;;6.43;82.96;99430.41;1783044;77;27742;-42
2021/01/24 05:57:15;;;;;;;12.37;9.03;;;;;;;6.39;82.90;99419.12;1747687;79;21122;-42
2021/01/24 05:59:52;;;;;;;13.62;9.13;;;;;;;6.47;82.78;99427.46;1741768;80;21177;-43
2021/01/24 06:02:22;;;;;;;13.25;10.00;;;;;;;6.48;82.69;99422.56;1733742;80;21637;-42
2021/01/24 06:04:51;;;;;;;12.55;9.85;;;;;;;6.47;82.73;99423.48;1743582;80;21295;-43
2021/01/24 06:07:19;;;;;;;12.05;8.95;;;;;;;6.47;82.69;99404.95;1746619;80;21148;-43
2021/01/24 06:09:47;;;;;;;11.65;9.40;;;;;;;6.46;82.70;99413.85;1750099;80;21530;-43
2021/01/24 06:12:17;;;;;;;15.00;9.10;;;;;;;6.47;82.68;99415.55;1744488;80;21113;-42
2021/01/24 06:14:49;;;;;;;16.00;10.35;;;;;;;6.48;82.65;99417.27;1749319;80;21142;-42
2021/01/24 06:17:38;;;;;;;14.98;10.03;;;;;;;6.49;82.60;99419.44;1743196;80;21629;-42
2021/01/24 06:20:07;;;;;;;16.87;10.72;;;;;;;6.50;82.61;99421.13;1744894;80;21145;-41
2021/01/24 06:22:47;;;;;;;14.83;10.63;;;;;;;6.51;82.62;99408.29;1744941;80;21263;-41
2021/01/24 06:25:24;;;;;;;14.73;10.48;;;;;;;6.51;82.61;99410.94;1741073;80;21843;-43
2021/01/24 06:27:56;;;;;;;13.25;9.78;;;;;;;6.52;82.59;99415.28;1737874;80;21652;-43
2021/01/24 06:30:26;;;;;;;20.92;13.98;;;;;;;6.52;82.50;99412.63;1740970;80;21712;-42
2021/01/24 06:32:54;;;;;;;20.35;13.98;;;;;;;6.52;82.60;99422.38;1745552;80;21160;-42
2021/01/24 06:35:26;;;;;;;20.15;11.70;;;;;;;6.49;82.63;99419.44;1745006;80;21130;-42
2021/01/24 06:38:00;;;;;;;16.37;12.05;;;;;;;6.50;82.63;99423.78;1711663;81;21210;-41
2021/01/24 06:40:32;;;;;;;17.32;12.60;;;;;;;6.51;82.62;99421.53;1744287;80;21133;-41
2021/01/24 06:43:01;;;;;;;19.48;12.20;;;;;;;6.52;82.67;99417.93;1747111;80;21145;-41
2021/01/24 06:45:34;;;;;;;18.37;11.80;;;;;;;6.56;82.61;99415.50;1710485;82;21172;-40
2021/01/24 06:48:02;;;;;;;17.35;13.25;;;;;;;6.58;82.56;99426.86;1684302;83;21206;-43
2021/01/24 06:50:49;;;;;;;19.77;13.90;;;;;;;6.58;82.52;99424.21;1689051;83;21158;-45
2021/01/24 06:53:24;;;;;;;18.02;13.68;;;;;;;6.60;82.49;99437.34;1706064;82;21166;-40
2021/01/24 06:56:06;;;;;;;19.00;11.95;;;;;;;6.61;82.40;99433.77;1702345;82;21166;-42
2021/01/24 06:58:35;;;;;;;17.07;13.93;;;;;;;6.61;82.35;99424.50;1698012;82;21457;-42
2021/01/24 07:01:31;;;;;;;19.23;14.30;;;;;;;6.61;82.34;99431.13;1741460;80;21150;-41
2021/01/24 07:04:30;;;;;;;19.07;12.93;;;;;;;6.60;82.31;99430.28;1734835;80;21145;-42
2021/01/24 07:07:13;;;;;;;20.32;13.08;;;;;;;6.61;82.29;99428.00;1737782;80;21130;-45
2021/01/24 07:09:42;;;;;;;18.52;13.22;;;;;;;6.63;82.22;99430.57;1737498;80;21162;-50
2021/01/24 07:12:10;;;;;;;21.20;14.10;;;;;;;6.62;82.18;99429.69;1738695;80;21165;-43
2021/01/24 07:14:44;;;;;;;18.98;13.78;;;;;;;6.63;82.16;99428.77;1732726;80;21357;-43
2021/01/24 07:17:14;;;;;;;20.45;14.45;;;;;;;6.63;82.11;99425.27;1733824;80;21134;-42
2021/01/24 07:19:48;;;;;;;23.57;15.25;;;;;;;6.65;82.17;99422.91;1737177;80;21149;-41
2021/01/24 07:22:18;;;;;;;21.35;14.80;;;;;;;6.66;82.16;99421.11;1739601;80;21150;-40
2021/01/24 07:24:47;;;;;;;24.52;12.47;;;;;;;6.68;82.13;99422.72;1736465;80;21291;-42
2021/01/24 07:27:16;;;;;;;23.12;13.18;;;;;;;6.70;82.08;99423.94;1736203;81;21153;-41
2021/01/24 07:29:44;;;;;;;17.12;13.28;;;;;;;6.71;82.08;99428.31;1734101;80;22029;-41
2021/01/24 07:32:19;;;;;;;23.92;14.87;;;;;;;6.72;82.08;99424.23;1739014;80;21454;-42
2021/01/24 07:34:49;;;;;;;17.35;12.70;;;;;;;6.74;82.05;99419.33;1737800;80;21154;-42
2021/01/24 07:37:17;;;;;;;19.37;13.65;;;;;;;6.76;82.04;99424.08;1734729;80;21154;-42
2021/01/24 07:39:47;;;;;;;26.57;16.15;;;;;;;6.77;82.07;99426.61;1731398;80;21613;-41
2021/01/24 07:42:15;;;;;;;21.23;15.00;;;;;;;6.78;82.08;99429.66;1733140;81;21158;-41
2021/01/24 07:44:43;;;;;;;22.15;13.32;;;;;;;6.80;82.09;99424.25;1734197;80;21186;-41
2021/01/24 07:47:11;;;;;;;21.05;12.95;;;;;;;6.83;82.12;99416.99;1738104;80;21578;-41
2021/01/24 07:49:39;;;;;;;20.60;12.93;;;;;;;6.87;82.18;99425.12;1727704;80;21488;-42
2021/01/24 07:52:07;;;;;;;22.17;13.15;;;;;;;6.92;82.19;99420.39;1730992;81;21127;-41
2021/01/24 07:54:36;;;;;;;17.00;12.60;;;;;;;6.96;82.18;99413.61;1729855;80;21152;-42
2021/01/24 07:57:05;;;;;;;18.07;12.03;;;;;;;7.00;82.12;99408.00;1723722;81;21203;-42
2021/01/24 07:59:33;;;;;;;24.70;15.48;;;;;;;7.03;82.07;99417.56;1687128;81;21314;-42
2021/01/24 08:02:02;;;;;;;18.25;11.38;;;;;;;7.05;81.99;99416.53;1726347;81;21154;-42
2021/01/24 08:04:36;;;;;;;22.05;12.13;;;;;;;7.08;81.92;99411.52;1725334;81;21142;-42
2021/01/24 08:07:10;;;;;;;20.97;12.90;;;;;;;7.09;81.81;99412.76;1725175;81;21161;-42
2021/01/24 08:09:38;;;;;;;18.42;12.68;;;;;;;7.10;81.75;99410.47;1723923;81;21151;-42
2021/01/24 08:12:11;;;;;;;18.57;12.25;;;;;;;7.12;81.72;99403.28;1705083;81;21138;-42
2021/01/24 08:14:39;;;;;;;20.15;12.40;;;;;;;7.14;81.60;99401.40;1726932;81;21120;-42
2021/01/24 08:17:10;;;;;;;23.07;13.43;;;;;;;7.18;81.49;99402.05;1704297;81;21512;-42
2021/01/24 08:19:38;;;;;;;20.27;12.75;;;;;;;7.20;81.41;99398.83;1684291;81;21150;-42
2021/01/24 08:22:05;;;;;;;18.57;12.80;;;;;;;7.23;81.30;99405.75;1726258;81;21146;-42
2021/01/24 08:24:33;;;;;;;24.72;12.05;;;;;;;7.26;81.22;99397.15;1726830;81;21327;-42
2021/01/24 08:27:01;;;;;;;15.98;11.25;;;;;;;7.29;81.05;99389.48;1708979;82;21149;-42
2021/01/24 08:29:34;;;;;;;20.52;11.55;;;;;;;7.30;81.07;99391.17;1689013;83;21099;-41
2021/01/24 08:31:58;;;;;;;20.12;11.20;;;;;;;7.32;81.05;99385.30;1681778;81;21903;-41
2021/01/24 08:34:26;;;;;;;15.83;11.35;;;;;;;7.35;81.02;99383.77;1730434;81;21106;-43
2021/01/24 08:36:54;;;;;;;19.98;12.35;;;;;;;7.39;80.93;99377.34;1725589;81;21586;-43
2021/01/24 08:39:23;;;;;;;18.57;11.68;;;;;;;7.42;80.94;99377.14;1704758;81;21602;-42
2021/01/24 08:41:52;;;;;;;19.95;11.25;;;;;;;7.44;80.87;99368.63;1729182;81;21162;-43
2021/01/24 08:44:20;;;;;;;16.00;10.53;;;;;;;7.48;80.82;99378.07;1728011;81;21292;-41
2021/01/24 08:46:54;;;;;;;23.60;12.80;;;;;;;7.51;80.74;99376.58;1726922;81;21135;-42
2021/01/24 08:49:24;;;;;;;18.05;10.28;;;;;;;7.52;80.66;99372.96;1685898;81;21189;-42
2021/01/24 08:52:00;;;;;;;14.15;10.93;;;;;;;7.57;80.55;99380.16;1725771;81;21141;-42
2021/01/24 08:54:35;;;;;;;26.97;10.48;;;;;;;7.59;80.42;99374.28;1714240;81;21579;-44
2021/01/24 08:57:18;;;;;;;21.27;10.53;;;;;;;7.61;80.29;99370.22;1702325;82;21159;-50
2021/01/24 08:59:54;;;;;;;16.93;10.55;;;;;;;7.62;80.24;99367.92;1701133;82;21149;-43
2021/01/24 09:02:39;;;;;;;18.23;10.53;;;;;;;7.65;80.11;99361.58;1701064;82;21296;-42
2021/01/24 09:05:30;;;;;;;;;;;;;;;7.69;80.02;99363.09;1664687;84;21299;-41
2021/01/24 09:07:57;;;;;;;16.60;9.25;;;;;;;7.69;79.90;99370.57;1701137;82;20176;-43
2021/01/24 09:10:32;;;;;;;19.45;10.00;;;;;;;7.70;79.83;99369.61;1698459;82;21166;-40
2021/01/24 09:13:04;;;;;;;14.75;9.48;;;;;;;7.70;79.73;99366.11;1697596;82;21150;-43
2021/01/24 09:15:32;;;;;;;12.13;8.83;;;;;;;7.71;79.66;99364.70;1699818;84;21138;-41
2021/01/24 09:18:01;;;;;;;13.00;8.88;;;;;;;7.73;79.63;99360.59;1697074;84;21146;-43
2021/01/24 09:20:29;;;;;;;13.28;8.18;;;;;;;7.74;79.51;99355.69;1696303;82;21142;-42
2021/01/24 09:22:57;;;;;;;19.82;9.18;;;;;;;7.75;79.43;99354.23;1646024;85;21199;-42
2021/01/24 09:25:25;;;;;;;15.05;8.75;;;;;;;7.77;79.39;99351.50;1701822;82;21181;-45
2021/01/24 09:27:53;;;;;;;14.83;8.00;;;;;;;7.78;79.30;99352.70;1699151;82;21161;-43
2021/01/24 09:30:22;;;;;;;17.37;8.88;;;;;;;7.79;79.28;99345.14;1703561;82;21156;-43
2021/01/24 09:32:49;;;;;;;15.98;9.55;;;;;;;7.83;79.32;99340.47;1704536;82;21185;-42
2021/01/24 09:35:17;;;;;;;19.42;8.78;;;;;;;7.85;79.25;99335.92;1705199;82;21118;-43
2021/01/24 09:37:44;;;;;;;14.20;7.95;;;;;;;7.89;79.28;99338.77;1700157;82;21896;-42
2021/01/24 09:40:13;;;;;;;20.82;8.55;;;;;;;7.92;79.24;99328.42;1701579;82;21154;-41
2021/01/24 09:42:40;;;;;;;14.10;7.15;;;;;;;7.98;79.05;99321.37;1693464;82;21125;-41
2021/01/24 09:45:09;;;;;;;12.73;7.97;;;;;;;7.98;79.05;99321.37;1700806;82;21126;-42
2021/01/24 09:50:11;;;;;;;12.45;7.35;;;;;;;8.07;78.87;99318.59;1790034;79;22167;-41
2021/01/24 09:52:39;;;;;;;10.38;7.40;;;;;;;8.07;78.73;99315.45;1768076;80;21168;-40
2021/01/24 09:55:07;;;;;;;12.75;7.40;;;;;;;8.09;78.64;99314.89;1764406;80;21129;-41
2021/01/24 09:57:37;;;;;;;11.73;7.72;;;;;;;8.17;78.46;99305.08;1750169;80;21553;-41
2021/01/24 10:00:05;;;;;;;14.65;6.97;;;;;;;8.17;78.46;99305.08;1751015;80;21141;-41
2021/01/24 10:02:35;;;;;;;12.00;7.40;;;;;;;8.20;78.37;99310.18;1749764;80;22004;-43
2021/01/24 10:05:03;;;;;;;11.63;7.30;;;;;;;8.25;78.30;99305.41;1749905;80;21148;-40
2021/01/24 10:07:31;;;;;;;11.80;7.72;;;;;;;8.25;78.30;99305.41;1751659;80;21616;-41
2021/01/24 10:10:00;;;;;;;10.45;5.92;;;;;;;8.29;78.17;99294.09;1749156;80;21153;-40
2021/01/24 10:12:28;;;;;;;9.65;6.65;;;;;;;8.34;78.12;99293.30;1748066;80;21678;-41
2021/01/24 10:14:55;;;;;;;10.23;7.22;;;;;;;8.38;78.11;99286.34;1744470;80;21584;-42
2021/01/24 10:17:23;;;;;;;12.40;7.03;;;;;;;8.44;77.94;99280.66;1746551;80;21131;-41
2021/01/24 10:19:51;;;;;;;10.63;6.78;;;;;;;8.49;77.81;99283.47;1747092;80;21180;-41
2021/01/24 10:22:19;;;;;;;13.98;6.20;;;;;;;8.57;77.16;99274.52;1747391;80;21153;-42
2021/01/24 10:24:46;;;;;;;12.65;7.30;;;;;;;8.57;77.16;99274.52;1746538;80;21129;-47
2021/01/24 10:27:14;;;;;;;10.48;6.55;;;;;;;8.62;77.34;99268.40;1752283;80;21692;-40
2021/01/24 10:29:43;;;;;;;11.70;6.55;;;;;;;8.66;77.10;99276.02;1749094;80;21141;-40
2021/01/24 10:32:13;;;;;;;10.68;6.28;;;;;;;8.70;77.00;99271.37;1749483;80;21153;-42
2021/01/24 10:34:42;;;;;;;8.80;5.87;;;;;;;8.73;76.87;99272.47;1743070;80;21275;-43
2021/01/24 10:37:10;;;;;;;10.50;6.28;;;;;;;8.78;76.75;99274.33;1748668;80;21154;-41
2021/01/24 10:39:37;;;;;;;10.28;5.50;;;;;;;8.83;76.68;99271.36;1753309;80;21185;-42
2021/01/24 10:42:05;;;;;;;10.98;6.50;;;;;;;8.87;76.50;99266.20;1747258;80;21164;-38
2021/01/24 10:44:33;;;;;;;9.38;6.37;;;;;;;8.92;76.31;99271.17;1748515;80;21130;-42
2021/01/24 10:47:01;;;;;;;7.75;5.00;;;;;;;8.95;76.09;99263.00;1746297;80;21159;-40
2021/01/24 10:49:30;;;;;;;12.88;6.47;;;;;;;9.00;75.48;99255.06;1741457;80;21196;-41
2021/01/24 10:51:59;;;;;;;10.23;6.08;;;;;;;9.00;75.48;99255.06;1739153;80;21168;-42
2021/01/24 10:54:26;;;;;;;8.80;5.72;;;;;;;9.03;75.45;99250.00;1746509;80;22055;-40
2021/01/24 10:56:54;;;;;;;10.35;5.17;;;;;;;9.04;75.55;99250.36;1742778;80;22192;-41
2021/01/24 10:59:22;;;;;;;10.90;5.40;;;;;;;9.12;75.42;99249.81;1743748;80;21148;-41
2021/01/24 11:01:50;;;;;;;8.48;5.62;;;;;;;9.15;74.95;99254.45;1746905;80;21990;-42
2021/01/24 11:04:18;;;;;;;11.53;6.45;;;;;;;9.19;74.88;99249.75;1747004;80;21173;-42
2021/01/24 11:06:47;;;;;;;12.00;5.00;;;;;;;9.21;74.52;99250.00;1743389;80;21106;-42
2021/01/24 11:09:15;;;;;;;9.25;5.92;;;;;;;9.22;74.48;99249.52;1744727;80;21138;-42
2021/01/24 11:11:43;;;;;;;13.60;5.87;;;;;;;9.24;74.38;99253.77;1744739;80;21149;-41
2021/01/24 11:14:11;;;;;;;9.68;6.10;;;;;;;9.27;74.20;99248.70;1746062;80;21161;-43
2021/01/24 11:16:39;;;;;;;8.25;5.08;;;;;;;9.28;74.01;99248.61;1746378;80;22035;-42
2021/01/24 11:19:07;;;;;;;7.83;5.00;;;;;;;9.28;74.01;99248.61;1746491;80;21169;-46
2021/01/24 11:21:34;;;;;;;14.18;6.22;;;;;;;9.30;74.03;99255.16;1743236;80;21155;-44
2021/01/24 11:24:02;;;;;;;10.60;5.92;;;;;;;9.35;74.33;99241.50;1745427;80;21514;-43
2021/01/24 11:26:30;;;;;;;11.05;5.12;;;;;;;9.41;74.26;99241.06;1741902;80;21550;-44
2021/01/24 11:28:58;;;;;;;10.00;6.33;;;;;;;9.47;74.06;99245.92;1743763;80;21496;-41
2021/01/24 11:31:25;;;;;;;10.60;6.25;;;;;;;9.52;73.91;99235.34;1743129;80;21110;-42
2021/01/24 11:33:53;;;;;;;8.93;5.87;;;;;;;9.58;73.69;99230.03;1746753;80;21145;-41
2021/01/24 11:36:21;;;;;;;8.05;5.70;;;;;;;9.63;73.49;99231.03;1747172;80;21581;-42
2021/01/24 11:38:49;;;;;;;12.07;6.03;;;;;;;9.67;73.31;99235.98;1700653;82;21679;-41
2021/01/24 11:41:18;;;;;;;7.72;5.22;;;;;;;9.68;73.34;99228.88;1680495;83;21159;-41
2021/01/24 11:43:46;;;;;;;10.63;5.95;;;;;;;9.71;73.33;99221.50;1681341;83;21165;-41
2021/01/24 11:46:13;;;;;;;10.75;5.12;;;;;;;9.75;72.96;99221.64;1685756;83;21558;-39
2021/01/24 11:48:41;;;;;;;8.45;5.40;;;;;;;9.79;72.94;99224.07;1687567;83;21129;-39
2021/01/24 11:51:09;;;;;;;9.85;4.55;;;;;;;9.80;72.77;99229.75;1687716;83;21149;-39